sensor_id;sensor_type;location;lat;lon;timestamp;temperature;humidity
33067;DHT22;19428;49.024;8.366;2023-04-08T00:01:41;9.80;99.90
33067;DHT22;19428;49.024;8.366;2023-04-08T00:04:07;9.80;99.90
33067;DHT22;19428;49.024;8.366;2023-04-08T00:06:33;9.80;99.90
33067;DHT22;19428;49.024;8.366;2023-04-08T00:08:59;9.80;99.90
33067;DHT22;19428;49.024;8.366;2023-04-08T00:11:25;9.80;99.90
33067;DHT22;19428;49.024;8.366;2023-04-08T00:13:51;9.70;99.90
33067;DHT22;19428;49.024;8.366;2023-04-08T00:16:16;9.70;99.90
33067;DHT22;19428;49.024;8.366;2023-04-08T00:18:42;9.60;99.90
33067;DHT22;19428;49.024;8.366;2023-04-08T00:21:08;9.60;99.90
33067;DHT22;19428;49.024;8.366;2023-04-08T00:23:33;9.60;99.90
33067;DHT22;19428;49.024;8.366;2023-04-08T00:25:59;9.60;99.90
33067;DHT22;19428;49.024;8.366;2023-04-08T00:28:25;9.50;99.90
33067;DHT22;19428;49.024;8.366;2023-04-08T00:30:52;9.50;99.90
33067;DHT22;19428;49.024;8.366;2023-04-08T00:33:17;9.50;99.90
33067;DHT22;19428;49.024;8.366;2023-04-08T00:35:43;9.40;99.90
33067;DHT22;19428;49.024;8.366;2023-04-08T00:38:09;9.50;99.90
33067;DHT22;19428;49.024;8.366;2023-04-08T00:40:34;9.50;99.90
33067;DHT22;19428;49.024;8.366;2023-04-08T00:43:00;9.50;99.90
33067;DHT22;19428;49.024;8.366;2023-04-08T00:45:26;9.60;99.90
33067;DHT22;19428;49.024;8.366;2023-04-08T00:47:51;9.40;99.90
33067;DHT22;19428;49.024;8.366;2023-04-08T00:50:17;9.40;99.90
33067;DHT22;19428;49.024;8.366;2023-04-08T00:52:43;9.50;99.90
33067;DHT22;19428;49.024;8.366;2023-04-08T00:55:09;9.50;99.90
33067;DHT22;19428;49.024;8.366;2023-04-08T00:57:34;9.50;99.90
33067;DHT22;19428;49.024;8.366;2023-04-08T01:00:01;9.50;99.90
33067;DHT22;19428;49.024;8.366;2023-04-08T01:02:46;9.60;99.90
33067;DHT22;19428;49.024;8.366;2023-04-08T01:05:25;9.60;99.90
33067;DHT22;19428;49.024;8.366;2023-04-08T01:07:53;9.60;99.90
33067;DHT22;19428;49.024;8.366;2023-04-08T01:10:27;9.60;99.90
33067;DHT22;19428;49.024;8.366;2023-04-08T01:12:55;9.50;99.90
33067;DHT22;19428;49.024;8.366;2023-04-08T01:15:22;9.50;99.90
33067;DHT22;19428;49.024;8.366;2023-04-08T01:17:49;9.50;99.90
33067;DHT22;19428;49.024;8.366;2023-04-08T01:20:18;9.50;99.90
33067;DHT22;19428;49.024;8.366;2023-04-08T01:23:14;9.50;99.90
33067;DHT22;19428;49.024;8.366;2023-04-08T01:26:00;9.50;99.90
33067;DHT22;19428;49.024;8.366;2023-04-08T01:28:28;9.50;99.90
33067;DHT22;19428;49.024;8.366;2023-04-08T01:30:56;9.50;99.90
33067;DHT22;19428;49.024;8.366;2023-04-08T01:33:26;9.50;99.90
33067;DHT22;19428;49.024;8.366;2023-04-08T01:35:54;9.40;99.90
33067;DHT22;19428;49.024;8.366;2023-04-08T01:38:22;9.40;99.90
33067;DHT22;19428;49.024;8.366;2023-04-08T01:40:50;9.40;99.90
33067;DHT22;19428;49.024;8.366;2023-04-08T01:43:16;9.40;99.90
33067;DHT22;19428;49.024;8.366;2023-04-08T01:45:44;9.40;99.90
33067;DHT22;19428;49.024;8.366;2023-04-08T01:48:12;9.40;99.90
33067;DHT22;19428;49.024;8.366;2023-04-08T01:50:43;9.40;99.90
33067;DHT22;19428;49.024;8.366;2023-04-08T01:53:09;9.40;99.90
33067;DHT22;19428;49.024;8.366;2023-04-08T01:55:37;9.40;99.90
33067;DHT22;19428;49.024;8.366;2023-04-08T01:58:04;9.40;99.90
33067;DHT22;19428;49.024;8.366;2023-04-08T02:00:33;9.40;99.90
33067;DHT22;19428;49.024;8.366;2023-04-08T02:02:59;9.40;99.90
33067;DHT22;19428;49.024;8.366;2023-04-08T02:05:26;9.30;99.90
33067;DHT22;19428;49.024;8.366;2023-04-08T02:07:52;9.40;99.90
33067;DHT22;19428;49.024;8.366;2023-04-08T02:10:17;9.30;99.90
33067;DHT22;19428;49.024;8.366;2023-04-08T02:12:43;9.40;99.90
33067;DHT22;19428;49.024;8.366;2023-04-08T02:15:11;9.40;99.90
33067;DHT22;19428;49.024;8.366;2023-04-08T02:17:49;9.40;99.90
33067;DHT22;19428;49.024;8.366;2023-04-08T02:20:18;9.40;99.90
33067;DHT22;19428;49.024;8.366;2023-04-08T02:22:52;9.30;99.90
33067;DHT22;19428;49.024;8.366;2023-04-08T02:25:23;9.30;99.90
33067;DHT22;19428;49.024;8.366;2023-04-08T02:27:51;9.30;99.90
33067;DHT22;19428;49.024;8.366;2023-04-08T02:30:17;9.30;99.90
33067;DHT22;19428;49.024;8.366;2023-04-08T02:32:44;9.30;99.90
33067;DHT22;19428;49.024;8.366;2023-04-08T02:35:12;9.30;99.90
33067;DHT22;19428;49.024;8.366;2023-04-08T02:37:38;9.20;99.90
33067;DHT22;19428;49.024;8.366;2023-04-08T02:40:24;9.30;99.90
33067;DHT22;19428;49.024;8.366;2023-04-08T02:42:50;9.30;99.90
33067;DHT22;19428;49.024;8.366;2023-04-08T02:45:16;9.30;99.90
33067;DHT22;19428;49.024;8.366;2023-04-08T02:47:42;9.30;99.90
33067;DHT22;19428;49.024;8.366;2023-04-08T02:50:08;9.20;99.90
33067;DHT22;19428;49.024;8.366;2023-04-08T02:52:34;9.20;99.90
33067;DHT22;19428;49.024;8.366;2023-04-08T02:55:00;9.30;99.90
33067;DHT22;19428;49.024;8.366;2023-04-08T02:57:25;9.20;99.90
33067;DHT22;19428;49.024;8.366;2023-04-08T02:59:51;9.20;99.90
33067;DHT22;19428;49.024;8.366;2023-04-08T03:02:16;9.30;99.90
33067;DHT22;19428;49.024;8.366;2023-04-08T03:04:42;9.30;99.90
33067;DHT22;19428;49.024;8.366;2023-04-08T03:07:08;9.30;99.90
33067;DHT22;19428;49.024;8.366;2023-04-08T03:09:33;9.20;99.90
33067;DHT22;19428;49.024;8.366;2023-04-08T03:11:59;9.30;99.90
33067;DHT22;19428;49.024;8.366;2023-04-08T03:14:25;9.30;99.90
33067;DHT22;19428;49.024;8.366;2023-04-08T03:16:50;9.30;99.90
33067;DHT22;19428;49.024;8.366;2023-04-08T03:19:16;9.30;99.90
33067;DHT22;19428;49.024;8.366;2023-04-08T03:21:41;9.20;99.90
33067;DHT22;19428;49.024;8.366;2023-04-08T03:24:07;9.20;99.90
33067;DHT22;19428;49.024;8.366;2023-04-08T03:26:32;9.20;99.90
33067;DHT22;19428;49.024;8.366;2023-04-08T03:28:58;9.20;99.90
33067;DHT22;19428;49.024;8.366;2023-04-08T03:31:24;9.20;99.90
33067;DHT22;19428;49.024;8.366;2023-04-08T03:33:50;9.20;99.90
33067;DHT22;19428;49.024;8.366;2023-04-08T03:36:16;9.20;99.90
33067;DHT22;19428;49.024;8.366;2023-04-08T03:38:42;9.10;99.90
33067;DHT22;19428;49.024;8.366;2023-04-08T03:41:08;9.10;99.90
33067;DHT22;19428;49.024;8.366;2023-04-08T03:43:34;9.10;99.90
33067;DHT22;19428;49.024;8.366;2023-04-08T03:45:59;9.10;99.90
33067;DHT22;19428;49.024;8.366;2023-04-08T03:48:25;9.20;99.90
33067;DHT22;19428;49.024;8.366;2023-04-08T03:50:50;9.20;99.90
33067;DHT22;19428;49.024;8.366;2023-04-08T03:53:16;9.10;99.90
33067;DHT22;19428;49.024;8.366;2023-04-08T03:55:41;9.10;99.90
33067;DHT22;19428;49.024;8.366;2023-04-08T03:58:07;9.10;99.90
33067;DHT22;19428;49.024;8.366;2023-04-08T04:00:34;9.00;99.90
33067;DHT22;19428;49.024;8.366;2023-04-08T04:03:00;8.90;99.90
33067;DHT22;19428;49.024;8.366;2023-04-08T04:05:26;8.90;99.90
33067;DHT22;19428;49.024;8.366;2023-04-08T04:07:51;8.90;99.90
33067;DHT22;19428;49.024;8.366;2023-04-08T04:10:17;8.80;99.90
33067;DHT22;19428;49.024;8.366;2023-04-08T04:12:43;8.80;99.90
33067;DHT22;19428;49.024;8.366;2023-04-08T04:15:09;8.80;99.90
33067;DHT22;19428;49.024;8.366;2023-04-08T04:17:35;8.70;99.90
33067;DHT22;19428;49.024;8.366;2023-04-08T04:20:03;8.50;99.90
33067;DHT22;19428;49.024;8.366;2023-04-08T04:22:29;8.60;99.90
33067;DHT22;19428;49.024;8.366;2023-04-08T04:24:55;8.60;99.90
33067;DHT22;19428;49.024;8.366;2023-04-08T04:27:21;8.60;99.90
33067;DHT22;19428;49.024;8.366;2023-04-08T04:29:46;8.60;99.90
33067;DHT22;19428;49.024;8.366;2023-04-08T04:32:12;8.60;99.90
33067;DHT22;19428;49.024;8.366;2023-04-08T04:34:37;8.60;99.90
33067;DHT22;19428;49.024;8.366;2023-04-08T04:37:03;8.60;99.90
33067;DHT22;19428;49.024;8.366;2023-04-08T04:39:28;8.60;99.90
33067;DHT22;19428;49.024;8.366;2023-04-08T04:41:54;8.60;99.90
33067;DHT22;19428;49.024;8.366;2023-04-08T04:44:19;8.60;99.90
33067;DHT22;19428;49.024;8.366;2023-04-08T04:46:45;8.70;99.90
33067;DHT22;19428;49.024;8.366;2023-04-08T04:49:11;8.60;99.90
33067;DHT22;19428;49.024;8.366;2023-04-08T04:51:36;8.70;99.90
33067;DHT22;19428;49.024;8.366;2023-04-08T04:54:02;8.70;99.90
33067;DHT22;19428;49.024;8.366;2023-04-08T04:56:27;8.70;99.90
33067;DHT22;19428;49.024;8.366;2023-04-08T04:58:53;8.80;99.90
33067;DHT22;19428;49.024;8.366;2023-04-08T05:01:19;8.80;99.90
33067;DHT22;19428;49.024;8.366;2023-04-08T05:03:44;8.80;99.90
33067;DHT22;19428;49.024;8.366;2023-04-08T05:06:10;8.80;99.90
33067;DHT22;19428;49.024;8.366;2023-04-08T05:08:36;8.80;99.90
33067;DHT22;19428;49.024;8.366;2023-04-08T05:11:01;8.90;99.90
33067;DHT22;19428;49.024;8.366;2023-04-08T05:13:28;8.90;99.90
33067;DHT22;19428;49.024;8.366;2023-04-08T05:15:53;8.80;99.90
33067;DHT22;19428;49.024;8.366;2023-04-08T05:18:19;8.90;99.90
33067;DHT22;19428;49.024;8.366;2023-04-08T05:20:45;8.90;99.90
33067;DHT22;19428;49.024;8.366;2023-04-08T05:23:11;8.80;99.90
33067;DHT22;19428;49.024;8.366;2023-04-08T05:25:37;8.70;99.90
33067;DHT22;19428;49.024;8.366;2023-04-08T05:28:03;8.70;99.90
33067;DHT22;19428;49.024;8.366;2023-04-08T05:30:28;8.80;99.90
33067;DHT22;19428;49.024;8.366;2023-04-08T05:32:54;8.80;99.90
33067;DHT22;19428;49.024;8.366;2023-04-08T05:35:19;8.90;99.90
33067;DHT22;19428;49.024;8.366;2023-04-08T05:37:45;9.10;99.90
33067;DHT22;19428;49.024;8.366;2023-04-08T05:40:11;9.10;99.90
33067;DHT22;19428;49.024;8.366;2023-04-08T05:42:36;9.20;99.90
33067;DHT22;19428;49.024;8.366;2023-04-08T05:45:02;9.30;99.90
33067;DHT22;19428;49.024;8.366;2023-04-08T05:47:28;9.30;99.90
33067;DHT22;19428;49.024;8.366;2023-04-08T05:49:54;9.30;99.90
33067;DHT22;19428;49.024;8.366;2023-04-08T05:52:19;9.40;99.90
33067;DHT22;19428;49.024;8.366;2023-04-08T05:54:45;9.50;99.90
33067;DHT22;19428;49.024;8.366;2023-04-08T05:57:11;9.60;99.90
33067;DHT22;19428;49.024;8.366;2023-04-08T05:59:37;9.60;99.90
33067;DHT22;19428;49.024;8.366;2023-04-08T06:02:02;9.60;99.90
33067;DHT22;19428;49.024;8.366;2023-04-08T06:04:28;9.50;99.90
33067;DHT22;19428;49.024;8.366;2023-04-08T06:06:54;9.50;99.90
33067;DHT22;19428;49.024;8.366;2023-04-08T06:09:24;9.60;99.90
33067;DHT22;19428;49.024;8.366;2023-04-08T06:11:49;9.60;99.90
33067;DHT22;19428;49.024;8.366;2023-04-08T06:14:15;9.60;99.90
33067;DHT22;19428;49.024;8.366;2023-04-08T06:16:41;9.60;99.90
33067;DHT22;19428;49.024;8.366;2023-04-08T06:19:07;9.60;99.90
33067;DHT22;19428;49.024;8.366;2023-04-08T06:21:32;9.60;99.90
33067;DHT22;19428;49.024;8.366;2023-04-08T06:23:58;9.60;99.90
33067;DHT22;19428;49.024;8.366;2023-04-08T06:26:23;9.60;99.90
33067;DHT22;19428;49.024;8.366;2023-04-08T06:28:49;9.80;99.90
33067;DHT22;19428;49.024;8.366;2023-04-08T06:31:16;9.70;99.90
33067;DHT22;19428;49.024;8.366;2023-04-08T06:33:42;9.80;99.90
33067;DHT22;19428;49.024;8.366;2023-04-08T06:36:07;10.00;99.90
33067;DHT22;19428;49.024;8.366;2023-04-08T06:38:33;9.90;99.90
33067;DHT22;19428;49.024;8.366;2023-04-08T06:41:06;9.90;99.90
33067;DHT22;19428;49.024;8.366;2023-04-08T06:43:33;9.80;99.90
33067;DHT22;19428;49.024;8.366;2023-04-08T06:45:59;9.80;99.90
33067;DHT22;19428;49.024;8.366;2023-04-08T06:48:25;9.80;99.90
33067;DHT22;19428;49.024;8.366;2023-04-08T06:50:59;9.80;99.90
33067;DHT22;19428;49.024;8.366;2023-04-08T06:53:26;9.90;99.90
33067;DHT22;19428;49.024;8.366;2023-04-08T06:55:53;10.00;99.90
33067;DHT22;19428;49.024;8.366;2023-04-08T06:58:19;10.20;99.90
33067;DHT22;19428;49.024;8.366;2023-04-08T07:00:45;10.10;99.90
33067;DHT22;19428;49.024;8.366;2023-04-08T07:03:11;10.10;99.90
33067;DHT22;19428;49.024;8.366;2023-04-08T07:05:37;10.10;99.90
33067;DHT22;19428;49.024;8.366;2023-04-08T07:08:03;10.30;99.90
33067;DHT22;19428;49.024;8.366;2023-04-08T07:10:29;10.30;99.90
33067;DHT22;19428;49.024;8.366;2023-04-08T07:12:55;10.20;99.90
33067;DHT22;19428;49.024;8.366;2023-04-08T07:15:21;10.30;99.90
33067;DHT22;19428;49.024;8.366;2023-04-08T07:17:46;10.20;99.90
33067;DHT22;19428;49.024;8.366;2023-04-08T07:20:12;10.40;99.90
33067;DHT22;19428;49.024;8.366;2023-04-08T07:22:39;10.40;99.90
33067;DHT22;19428;49.024;8.366;2023-04-08T07:25:04;10.20;99.90
33067;DHT22;19428;49.024;8.366;2023-04-08T07:27:32;10.30;99.90
33067;DHT22;19428;49.024;8.366;2023-04-08T07:29:57;10.10;99.90
33067;DHT22;19428;49.024;8.366;2023-04-08T07:32:23;10.50;99.90
33067;DHT22;19428;49.024;8.366;2023-04-08T07:34:48;10.40;99.90
33067;DHT22;19428;49.024;8.366;2023-04-08T07:37:14;10.40;99.90
33067;DHT22;19428;49.024;8.366;2023-04-08T07:39:40;10.20;99.90
33067;DHT22;19428;49.024;8.366;2023-04-08T07:42:06;10.40;99.90
33067;DHT22;19428;49.024;8.366;2023-04-08T07:44:31;10.50;99.90
33067;DHT22;19428;49.024;8.366;2023-04-08T07:46:57;10.30;99.90
33067;DHT22;19428;49.024;8.366;2023-04-08T07:49:22;10.30;99.90
33067;DHT22;19428;49.024;8.366;2023-04-08T07:51:48;10.40;99.90
33067;DHT22;19428;49.024;8.366;2023-04-08T07:54:13;10.30;99.90
33067;DHT22;19428;49.024;8.366;2023-04-08T07:56:42;10.40;99.90
33067;DHT22;19428;49.024;8.366;2023-04-08T07:59:09;10.00;99.90
33067;DHT22;19428;49.024;8.366;2023-04-08T08:01:35;10.20;99.90
33067;DHT22;19428;49.024;8.366;2023-04-08T08:04:01;10.50;99.90
33067;DHT22;19428;49.024;8.366;2023-04-08T08:06:27;10.30;99.90
33067;DHT22;19428;49.024;8.366;2023-04-08T08:08:54;10.30;99.90
33067;DHT22;19428;49.024;8.366;2023-04-08T08:11:19;10.40;99.90
33067;DHT22;19428;49.024;8.366;2023-04-08T08:13:47;10.50;99.90
33067;DHT22;19428;49.024;8.366;2023-04-08T08:16:12;10.50;99.90
33067;DHT22;19428;49.024;8.366;2023-04-08T08:18:39;10.90;99.90
33067;DHT22;19428;49.024;8.366;2023-04-08T08:21:09;10.90;99.90
33067;DHT22;19428;49.024;8.366;2023-04-08T08:23:35;10.90;99.90
33067;DHT22;19428;49.024;8.366;2023-04-08T08:26:04;10.80;99.90
33067;DHT22;19428;49.024;8.366;2023-04-08T08:28:31;11.10;99.90
33067;DHT22;19428;49.024;8.366;2023-04-08T08:30:57;11.20;99.90
33067;DHT22;19428;49.024;8.366;2023-04-08T08:33:23;11.30;99.90
33067;DHT22;19428;49.024;8.366;2023-04-08T08:35:49;11.30;99.90
33067;DHT22;19428;49.024;8.366;2023-04-08T08:38:15;11.30;99.90
33067;DHT22;19428;49.024;8.366;2023-04-08T08:40:42;11.40;99.90
33067;DHT22;19428;49.024;8.366;2023-04-08T08:43:08;11.30;99.90
33067;DHT22;19428;49.024;8.366;2023-04-08T08:45:38;11.40;99.90
33067;DHT22;19428;49.024;8.366;2023-04-08T08:48:05;11.40;99.90
33067;DHT22;19428;49.024;8.366;2023-04-08T08:50:32;11.20;99.90
33067;DHT22;19428;49.024;8.366;2023-04-08T08:52:57;11.20;99.90
33067;DHT22;19428;49.024;8.366;2023-04-08T08:55:23;11.20;99.90
33067;DHT22;19428;49.024;8.366;2023-04-08T08:57:51;11.50;99.90
33067;DHT22;19428;49.024;8.366;2023-04-08T09:00:17;11.80;99.90
33067;DHT22;19428;49.024;8.366;2023-04-08T09:02:43;11.70;99.20
33067;DHT22;19428;49.024;8.366;2023-04-08T09:05:09;12.10;99.90
33067;DHT22;19428;49.024;8.366;2023-04-08T09:07:36;12.10;98.60
33067;DHT22;19428;49.024;8.366;2023-04-08T09:10:05;11.90;97.10
33067;DHT22;19428;49.024;8.366;2023-04-08T09:12:30;11.70;97.00
33067;DHT22;19428;49.024;8.366;2023-04-08T09:15:09;11.70;97.40
33067;DHT22;19428;49.024;8.366;2023-04-08T09:17:36;11.70;97.10
33067;DHT22;19428;49.024;8.366;2023-04-08T09:20:07;11.90;96.80
33067;DHT22;19428;49.024;8.366;2023-04-08T09:22:54;11.80;95.20
33067;DHT22;19428;49.024;8.366;2023-04-08T09:25:29;11.90;94.90
33067;DHT22;19428;49.024;8.366;2023-04-08T09:27:56;12.10;95.00
33067;DHT22;19428;49.024;8.366;2023-04-08T09:30:23;12.10;94.80
33067;DHT22;19428;49.024;8.366;2023-04-08T09:32:51;12.00;94.30
33067;DHT22;19428;49.024;8.366;2023-04-08T09:35:18;11.60;94.80
33067;DHT22;19428;49.024;8.366;2023-04-08T09:37:43;11.80;96.00
33067;DHT22;19428;49.024;8.366;2023-04-08T09:40:09;12.10;94.80
33067;DHT22;19428;49.024;8.366;2023-04-08T09:42:39;12.00;93.30
33067;DHT22;19428;49.024;8.366;2023-04-08T09:45:06;12.10;93.10
33067;DHT22;19428;49.024;8.366;2023-04-08T09:50:11;11.90;91.80
33067;DHT22;19428;49.024;8.366;2023-04-08T09:52:45;11.90;90.00
33067;DHT22;19428;49.024;8.366;2023-04-08T09:55:16;12.40;90.60
33067;DHT22;19428;49.024;8.366;2023-04-08T09:57:51;12.20;83.30
33067;DHT22;19428;49.024;8.366;2023-04-08T10:00:21;13.10;85.30
33067;DHT22;19428;49.024;8.366;2023-04-08T10:03:13;13.20;76.30
33067;DHT22;19428;49.024;8.366;2023-04-08T10:05:45;13.80;77.10
33067;DHT22;19428;49.024;8.366;2023-04-08T10:08:12;13.80;76.50
33067;DHT22;19428;49.024;8.366;2023-04-08T10:10:38;13.00;80.80
33067;DHT22;19428;49.024;8.366;2023-04-08T10:13:06;12.50;71.20
33067;DHT22;19428;49.024;8.366;2023-04-08T10:15:33;12.30;71.20
33067;DHT22;19428;49.024;8.366;2023-04-08T10:23:01;12.70;75.00
33067;DHT22;19428;49.024;8.366;2023-04-08T10:25:28;12.90;68.40
33067;DHT22;19428;49.024;8.366;2023-04-08T10:27:54;12.60;68.60
33067;DHT22;19428;49.024;8.366;2023-04-08T10:32:55;12.60;67.50
33067;DHT22;19428;49.024;8.366;2023-04-08T10:35:33;13.10;68.10
33067;DHT22;19428;49.024;8.366;2023-04-08T10:38:00;13.70;74.00
33067;DHT22;19428;49.024;8.366;2023-04-08T10:40:25;14.00;69.20
33067;DHT22;19428;49.024;8.366;2023-04-08T10:42:55;13.70;63.30
33067;DHT22;19428;49.024;8.366;2023-04-08T10:45:22;14.00;60.70
33067;DHT22;19428;49.024;8.366;2023-04-08T10:47:48;14.10;55.90
33067;DHT22;19428;49.024;8.366;2023-04-08T10:50:18;13.40;54.60
33067;DHT22;19428;49.024;8.366;2023-04-08T10:52:48;13.90;60.00
33067;DHT22;19428;49.024;8.366;2023-04-08T10:55:14;14.10;56.40
33067;DHT22;19428;49.024;8.366;2023-04-08T10:57:41;14.00;54.50
33067;DHT22;19428;49.024;8.366;2023-04-08T11:00:10;13.70;50.50
33067;DHT22;19428;49.024;8.366;2023-04-08T11:02:39;13.70;54.40
33067;DHT22;19428;49.024;8.366;2023-04-08T11:05:05;13.40;53.70
33067;DHT22;19428;49.024;8.366;2023-04-08T11:07:31;13.10;56.00
33067;DHT22;19428;49.024;8.366;2023-04-08T11:10:01;12.70;55.80
33067;DHT22;19428;49.024;8.366;2023-04-08T11:12:27;13.10;59.30
33067;DHT22;19428;49.024;8.366;2023-04-08T11:14:52;13.10;58.80
33067;DHT22;19428;49.024;8.366;2023-04-08T11:17:19;13.10;57.00
33067;DHT22;19428;49.024;8.366;2023-04-08T11:19:45;13.10;54.00
33067;DHT22;19428;49.024;8.366;2023-04-08T11:22:11;13.10;56.00
33067;DHT22;19428;49.024;8.366;2023-04-08T11:24:37;12.80;51.30
33067;DHT22;19428;49.024;8.366;2023-04-08T11:27:04;13.10;50.50
33067;DHT22;19428;49.024;8.366;2023-04-08T11:29:33;12.90;45.20
33067;DHT22;19428;49.024;8.366;2023-04-08T11:31:59;12.70;43.20
33067;DHT22;19428;49.024;8.366;2023-04-08T11:34:25;12.80;41.70
33067;DHT22;19428;49.024;8.366;2023-04-08T11:36:51;12.70;43.70
33067;DHT22;19428;49.024;8.366;2023-04-08T11:39:16;12.70;43.00
33067;DHT22;19428;49.024;8.366;2023-04-08T11:41:42;12.70;41.10
33067;DHT22;19428;49.024;8.366;2023-04-08T11:44:09;12.30;39.00
33067;DHT22;19428;49.024;8.366;2023-04-08T11:46:34;12.30;40.90
33067;DHT22;19428;49.024;8.366;2023-04-08T11:49:05;12.20;38.80
33067;DHT22;19428;49.024;8.366;2023-04-08T11:51:33;12.50;41.20
33067;DHT22;19428;49.024;8.366;2023-04-08T11:57:28;12.50;49.30
33067;DHT22;19428;49.024;8.366;2023-04-08T11:59:57;12.40;51.60
33067;DHT22;19428;49.024;8.366;2023-04-08T12:02:22;12.50;51.20
33067;DHT22;19428;49.024;8.366;2023-04-08T12:04:48;12.70;50.10
33067;DHT22;19428;49.024;8.366;2023-04-08T12:07:14;13.30;50.30
33067;DHT22;19428;49.024;8.366;2023-04-08T12:09:39;12.80;47.00
33067;DHT22;19428;49.024;8.366;2023-04-08T12:12:05;13.60;47.50
33067;DHT22;19428;49.024;8.366;2023-04-08T12:14:30;13.80;46.60
33067;DHT22;19428;49.024;8.366;2023-04-08T12:16:56;13.60;50.60
33067;DHT22;19428;49.024;8.366;2023-04-08T12:19:22;13.50;45.20
33067;DHT22;19428;49.024;8.366;2023-04-08T12:21:48;13.60;49.00
33067;DHT22;19428;49.024;8.366;2023-04-08T12:24:13;13.70;47.20
33067;DHT22;19428;49.024;8.366;2023-04-08T12:26:39;13.50;46.10
33067;DHT22;19428;49.024;8.366;2023-04-08T12:29:04;13.50;43.90
33067;DHT22;19428;49.024;8.366;2023-04-08T12:31:30;13.30;43.50
33067;DHT22;19428;49.024;8.366;2023-04-08T12:33:56;12.60;45.00
33067;DHT22;19428;49.024;8.366;2023-04-08T12:36:21;12.80;47.00
33067;DHT22;19428;49.024;8.366;2023-04-08T12:38:47;12.60;45.80
33067;DHT22;19428;49.024;8.366;2023-04-08T12:41:12;12.80;47.00
33067;DHT22;19428;49.024;8.366;2023-04-08T12:43:38;12.90;47.00
33067;DHT22;19428;49.024;8.366;2023-04-08T12:46:03;12.90;44.40
33067;DHT22;19428;49.024;8.366;2023-04-08T12:48:29;12.70;40.10
33067;DHT22;19428;49.024;8.366;2023-04-08T12:50:55;12.70;41.60
33067;DHT22;19428;49.024;8.366;2023-04-08T12:53:20;12.60;40.60
33067;DHT22;19428;49.024;8.366;2023-04-08T12:55:46;12.80;42.50
33067;DHT22;19428;49.024;8.366;2023-04-08T12:58:11;13.20;43.50
33067;DHT22;19428;49.024;8.366;2023-04-08T13:00:37;13.20;42.80
33067;DHT22;19428;49.024;8.366;2023-04-08T13:03:03;13.30;37.90
33067;DHT22;19428;49.024;8.366;2023-04-08T13:05:30;13.10;39.70
33067;DHT22;19428;49.024;8.366;2023-04-08T13:07:55;12.90;40.70
33067;DHT22;19428;49.024;8.366;2023-04-08T13:10:21;12.90;36.80
33067;DHT22;19428;49.024;8.366;2023-04-08T13:12:47;12.50;39.10
33067;DHT22;19428;49.024;8.366;2023-04-08T13:15:13;13.10;38.80
33067;DHT22;19428;49.024;8.366;2023-04-08T13:17:38;13.50;36.80
33067;DHT22;19428;49.024;8.366;2023-04-08T13:20:04;13.30;37.80
33067;DHT22;19428;49.024;8.366;2023-04-08T13:22:30;13.60;36.20
33067;DHT22;19428;49.024;8.366;2023-04-08T13:24:58;13.90;38.00
33067;DHT22;19428;49.024;8.366;2023-04-08T13:27:23;14.20;34.60
33067;DHT22;19428;49.024;8.366;2023-04-08T13:29:49;13.80;30.20
33067;DHT22;19428;49.024;8.366;2023-04-08T13:32:15;13.30;31.40
33067;DHT22;19428;49.024;8.366;2023-04-08T13:34:41;13.40;32.10
33067;DHT22;19428;49.024;8.366;2023-04-08T13:37:06;13.90;31.60
33067;DHT22;19428;49.024;8.366;2023-04-08T13:39:32;13.60;34.00
33067;DHT22;19428;49.024;8.366;2023-04-08T13:41:57;13.20;33.70
33067;DHT22;19428;49.024;8.366;2023-04-08T13:44:23;13.50;32.00
33067;DHT22;19428;49.024;8.366;2023-04-08T13:46:49;13.10;32.10
33067;DHT22;19428;49.024;8.366;2023-04-08T13:49:16;13.00;35.30
33067;DHT22;19428;49.024;8.366;2023-04-08T13:51:42;12.90;37.80
33067;DHT22;19428;49.024;8.366;2023-04-08T13:54:07;13.10;37.90
33067;DHT22;19428;49.024;8.366;2023-04-08T13:56:33;12.80;37.80
33067;DHT22;19428;49.024;8.366;2023-04-08T13:58:58;12.80;38.40
33067;DHT22;19428;49.024;8.366;2023-04-08T14:01:24;12.90;37.00
33067;DHT22;19428;49.024;8.366;2023-04-08T14:03:50;12.80;37.80
33067;DHT22;19428;49.024;8.366;2023-04-08T14:06:15;12.70;38.70
33067;DHT22;19428;49.024;8.366;2023-04-08T14:08:43;12.60;40.00
33067;DHT22;19428;49.024;8.366;2023-04-08T14:11:09;12.50;40.20
33067;DHT22;19428;49.024;8.366;2023-04-08T14:13:36;12.60;40.20
33067;DHT22;19428;49.024;8.366;2023-04-08T14:16:02;13.20;40.40
33067;DHT22;19428;49.024;8.366;2023-04-08T14:18:28;13.10;39.50
33067;DHT22;19428;49.024;8.366;2023-04-08T14:20:54;12.90;41.10
33067;DHT22;19428;49.024;8.366;2023-04-08T14:23:21;12.70;42.50
33067;DHT22;19428;49.024;8.366;2023-04-08T14:25:46;12.80;44.80
33067;DHT22;19428;49.024;8.366;2023-04-08T14:28:12;13.30;43.90
33067;DHT22;19428;49.024;8.366;2023-04-08T14:30:37;13.40;44.20
33067;DHT22;19428;49.024;8.366;2023-04-08T14:33:03;13.00;46.30
33067;DHT22;19428;49.024;8.366;2023-04-08T14:35:32;13.30;43.60
33067;DHT22;19428;49.024;8.366;2023-04-08T14:37:57;13.30;45.30
33067;DHT22;19428;49.024;8.366;2023-04-08T14:40:23;13.60;44.90
33067;DHT22;19428;49.024;8.366;2023-04-08T14:42:48;13.80;44.20
33067;DHT22;19428;49.024;8.366;2023-04-08T14:45:15;13.40;46.10
33067;DHT22;19428;49.024;8.366;2023-04-08T14:47:40;12.80;48.00
33067;DHT22;19428;49.024;8.366;2023-04-08T14:50:06;12.80;48.50
33067;DHT22;19428;49.024;8.366;2023-04-08T14:52:32;13.10;49.30
33067;DHT22;19428;49.024;8.366;2023-04-08T14:54:57;13.00;51.00
33067;DHT22;19428;49.024;8.366;2023-04-08T14:57:23;13.00;50.70
33067;DHT22;19428;49.024;8.366;2023-04-08T14:59:49;13.20;50.20
33067;DHT22;19428;49.024;8.366;2023-04-08T15:02:14;13.30;49.60
33067;DHT22;19428;49.024;8.366;2023-04-08T15:04:40;13.40;49.10
33067;DHT22;19428;49.024;8.366;2023-04-08T15:07:05;13.40;49.20
33067;DHT22;19428;49.024;8.366;2023-04-08T15:09:32;13.40;51.00
33067;DHT22;19428;49.024;8.366;2023-04-08T15:11:57;13.60;50.50
33067;DHT22;19428;49.024;8.366;2023-04-08T15:14:23;13.60;48.60
33067;DHT22;19428;49.024;8.366;2023-04-08T15:16:48;13.50;49.70
33067;DHT22;19428;49.024;8.366;2023-04-08T15:19:14;13.50;49.40
33067;DHT22;19428;49.024;8.366;2023-04-08T15:21:39;13.70;50.80
33067;DHT22;19428;49.024;8.366;2023-04-08T15:24:05;13.40;52.50
33067;DHT22;19428;49.024;8.366;2023-04-08T15:26:31;13.10;53.40
33067;DHT22;19428;49.024;8.366;2023-04-08T15:28:57;13.10;51.30
33067;DHT22;19428;49.024;8.366;2023-04-08T15:31:23;12.90;52.30
33067;DHT22;19428;49.024;8.366;2023-04-08T15:33:49;13.10;54.30
33067;DHT22;19428;49.024;8.366;2023-04-08T15:36:15;13.30;53.70
33067;DHT22;19428;49.024;8.366;2023-04-08T15:38:45;13.30;54.10
33067;DHT22;19428;49.024;8.366;2023-04-08T15:41:18;13.30;53.20
33067;DHT22;19428;49.024;8.366;2023-04-08T15:43:44;13.10;53.00
33067;DHT22;19428;49.024;8.366;2023-04-08T15:46:10;12.90;55.30
33067;DHT22;19428;49.024;8.366;2023-04-08T15:48:36;12.80;55.40